Nashville, TN

4:10 PM CDT on March 27, 2015 (GMT -0500)
South Inglewood | | Change Station
CLOSE
Current Station
Personal Weather Station
Location: Nashville, TN
Elevation: 535 ft
Nearby Weather Stations

Elev 535 ft 36.20 °N, 86.72 °W | Updated 11 minutes ago

Overcast
Overcast
46.6 °F
Feels Like 42 °F
N
9.4
Wind Variable Wind from North

Today
High -- | Low -- °F
--% Chance of Precip.
Yesterday
High -- | Low -- °F
Precip. -- in
6:40 AM 7:04 PM
First Quarter, 56% visible
Pressure 30.01 in
Visibility 10.0 miles
Clouds Mostly Cloudy 3500 ft
Overcast 4400 ft
Windchill 42 °F
Dew Point 32 °F
Humidity 56%
Rainfall 0.00 in
Snow Depth Not available.
UV 1 out of 12
Pollen 9.50 out of 12
Air Quality Not available.
Flu Activity Not available.
METAR KBNA 272053Z 32012G17KT 10SM BKN035 OVC044 08/M01 A3000 RMK AO2 SLP160 T00781006 56002

More Conditions Fewer Conditions

Pressure 30.01 in
Visibility 10.0 miles
Clouds Mostly Cloudy 3500 ft
Overcast 4400 ft
Windchill 42 °F
Dew Point 32 °F
Humidity 56%
Rainfall 0.00 in
Snow Depth Not available.
UV 1 out of 12
Pollen 9.50 out of 12
Air Quality Not available.
Flu Activity Not available.
METAR KBNA 272053Z 32012G17KT 10SM BKN035 OVC044 08/M01 A3000 RMK AO2 SLP160 T00781006 56002

More Conditions Fewer Conditions

10-Day Weather Forecast

Almanac

Astronomy

Mar. 27, 2015 Rise Set
Actual Time
Civil Twilight
Nautical Twilight
Astronomical Twilight
Moon
Length of Visible Light
Length of Day
Tomorrow will be .
, % of the Moon is Illuminated

Today's Extremes

State Highs State Lows

Community

WunderPhotos

Upload Photos

1,808,826 photos uploaded!

WunderBlogs® & News

Nearby

Air Quality

  Air Quality AQ Index Pollutant
Not available.

Snow Depth

Station Depth Elevation

Earthquake Activity

City Distance Mag. Time & Date
Minimum magnitude displayed is 2.5.

Coastal Water Temperatures

Place Temperature

Stations

Nearby Weather Stations

Station Location Temp. Windchill Dew Point Humidity Wind Precip. Elev Updated Type
                   
Hard Freeze Warning, Hard Freeze Watch
Statement as of 1:43 PM CDT on March 27, 2015

... Hard freeze warning remains in effect from 1 am to 10 am CDT
Saturday...
... Hard freeze watch remains in effect from late Saturday night
through Sunday morning...

* temperature... 21 degrees to around 28 degrees.

* Impacts... sensitive vegetation will be damaged or killed.

Boyd